Terminal Aerodrome Forecast
Issued by NWS Grand Rapids, MI

Home | Current Version | Previous Version | Text Only | Print | Product List | Glossary On
Versions: 1 2 3 4 5 6 7 8 9 10 11 12 13 14 15 16 17 18 19 20
506
FTUS43 KGRR 091151
TAFGRR
TAF
KGRR 091151Z 0912/1012 31012KT P6SM -SHSN OVC015
     FM091600 31012G20KT 6SM -SHSN OVC015
     FM091900 31012G23KT 5SM -SHSN BR OVC015
     FM100200 33012G22KT 6SM -SHSN OVC010=

USA.gov is the U.S. government's official web portal to all federal, state and local government web resources and services.